Aérodrome :
LOGIN :

S'inscrire | Disclaimer

   EN    FR    IT 

 










Légende :    VFR   VFR Marginal   IFR   IFR Intensif   IFR Très Intensif
Visi : 
Plafond : 
>= 8 km
>= 3000ft
5 à 8 km
1000 à 3000 ft
1500m à 5 km
500 à 1000 ft
800 à 1500m
200 à 500 ft
< 800m
< 200 ft
Symboles :   Orages  Brouillard  Fortes neiges  Fortes précipitations  Vent > 20 kt
SIGMETs :   Divers  Orages  Givrage  Turbulence  Onde Orograph.  Cendres Volcan.






- Altitude de l'aérodrome : 63 ft
- Code IATA : BZM


EHWO - Woensdrecht Airbase

DERNIER METAR :
  • 090955Z AUTO 21008KT 170V240 9999 OVC007 05/03 Q1003 GRN TEMPO BKN007

METARs EXPIRÉS :
  • 090925Z AUTO 20008KT 170V250 9999 BKN007 OVC008 04/03 Q1002 GRN TEMPO BKN007
  • 090903Z AUTO 20007KT 170V240 9999 BKN007 BKN008 BKN027 04/03 Q1002 GRN TEMPO BKN009
  • 090855Z AUTO 21008KT 170V240 9999 FEW007 BKN030 OVC036 04/03 Q1002 BLU TEMPO BKN009
  • 090842Z AUTO 22009KT 180V250 9999 FEW008 SCT027 BKN036 04/02 Q1002 BLU TEMPO BKN009
  • 090825Z AUTO 21008KT 150V240 9999 BKN009 OVC010 04/02 Q1002 GRN NOSIG
  • 090818Z AUTO 20008KT 150V240 9999 BKN009 OVC010 04/02 Q1002 GRN NOSIG
  • 090803Z AUTO 19006KT 160V240 9999 SCT009 BKN010 OVC033 04/02 Q1002 GRN NOSIG
  • 090755Z AUTO 20007KT 150V240 9999 BKN009 BKN011 BKN034 04/02 Q1002 GRN
  • 090737Z AUTO 20006KT 170V250 9999 FEW009 OVC033 04/02 Q1002 BLU
  • 090736Z AUTO 21006KT 9999 FEW009 SCT017 BKN020 04/02 Q1002 WHT

TAF TAF EHWO
Valide du 09 à 10h jusqu'au 09 à 22h UTC


090916Z 0910/0922 21010KT 9999 SCT010 BKN025
TEMPO 0910/0916 -RA SCT007 BKN010
BECMG 0915/0918 FEW015 BKN025
BECMG 0918/0921 18008KT



MET'MAP, la Météo Aéronautique d'un coup d'oeil ! - Copyright ORBIFLY Décembre 2007 - Disclaimer

ORBIFLY MET'MAP TEAM :

Programmation & Développement : Alexandra Zaïnal
Sur une idée originale de : Baudouin d'Aumeries
Assistance à la programmation : Marc-Olivier Méhu
Soutien technique & logistique : Manuel Goepfert

Contact : metmap@orbifly.com




SOURCES & CREDITS :

   NOAA